sensor_id;sensor_type;location;lat;lon;timestamp;P1;durP1;ratioP1;P2;durP2;ratioP2
25637;SDS011;13496;51.040;13.680;2022-12-18T00:02:40;8.13;;;7.33;;
25637;SDS011;13496;51.040;13.680;2022-12-18T00:07:41;7.90;;;7.20;;
25637;SDS011;13496;51.040;13.680;2022-12-18T00:12:43;8.40;;;7.60;;
25637;SDS011;13496;51.040;13.680;2022-12-18T00:17:45;8.00;;;7.20;;
25637;SDS011;13496;51.040;13.680;2022-12-18T00:22:46;7.33;;;6.63;;
25637;SDS011;13496;51.040;13.680;2022-12-18T00:27:48;8.00;;;7.30;;
25637;SDS011;13496;51.040;13.680;2022-12-18T00:32:50;8.40;;;7.50;;
25637;SDS011;13496;51.040;13.680;2022-12-18T00:37:51;7.80;;;7.10;;
25637;SDS011;13496;51.040;13.680;2022-12-18T00:42:53;7.73;;;7.03;;
25637;SDS011;13496;51.040;13.680;2022-12-18T00:47:58;7.33;;;6.70;;
25637;SDS011;13496;51.040;13.680;2022-12-18T00:53:00;7.50;;;6.80;;
25637;SDS011;13496;51.040;13.680;2022-12-18T00:58:01;7.40;;;6.80;;
25637;SDS011;13496;51.040;13.680;2022-12-18T01:03:03;7.43;;;6.70;;
25637;SDS011;13496;51.040;13.680;2022-12-18T01:08:06;7.43;;;6.83;;
25637;SDS011;13496;51.040;13.680;2022-12-18T01:13:07;7.50;;;6.80;;
25637;SDS011;13496;51.040;13.680;2022-12-18T01:18:09;7.97;;;7.20;;
25637;SDS011;13496;51.040;13.680;2022-12-18T01:23:11;7.17;;;6.47;;
25637;SDS011;13496;51.040;13.680;2022-12-18T01:28:13;7.10;;;6.40;;
25637;SDS011;13496;51.040;13.680;2022-12-18T01:33:15;7.03;;;6.33;;
25637;SDS011;13496;51.040;13.680;2022-12-18T01:38:17;7.10;;;6.40;;
25637;SDS011;13496;51.040;13.680;2022-12-18T01:43:19;6.83;;;6.13;;
25637;SDS011;13496;51.040;13.680;2022-12-18T01:48:21;6.30;;;5.70;;
25637;SDS011;13496;51.040;13.680;2022-12-18T01:53:22;6.40;;;5.80;;
25637;SDS011;13496;51.040;13.680;2022-12-18T01:59:11;5.90;;;5.40;;
25637;SDS011;13496;51.040;13.680;2022-12-18T02:04:24;6.83;;;6.20;;
25637;SDS011;13496;51.040;13.680;2022-12-18T02:09:34;6.60;;;6.00;;
25637;SDS011;13496;51.040;13.680;2022-12-18T02:14:58;6.50;;;5.73;;
25637;SDS011;13496;51.040;13.680;2022-12-18T02:30:56;6.23;;;5.70;;
25637;SDS011;13496;51.040;13.680;2022-12-18T02:36:03;5.43;;;4.97;;
25637;SDS011;13496;51.040;13.680;2022-12-18T02:41:07;5.87;;;5.30;;
25637;SDS011;13496;51.040;13.680;2022-12-18T02:51:33;6.00;;;5.50;;
25637;SDS011;13496;51.040;13.680;2022-12-18T02:56:50;5.73;;;5.23;;
25637;SDS011;13496;51.040;13.680;2022-12-18T03:02:04;5.80;;;5.30;;
25637;SDS011;13496;51.040;13.680;2022-12-18T03:07:33;5.73;;;5.23;;
25637;SDS011;13496;51.040;13.680;2022-12-18T03:12:43;5.77;;;5.27;;
25637;SDS011;13496;51.040;13.680;2022-12-18T03:17:55;5.23;;;4.73;;
25637;SDS011;13496;51.040;13.680;2022-12-18T03:23:04;5.30;;;4.80;;
25637;SDS011;13496;51.040;13.680;2022-12-18T03:28:12;4.97;;;4.57;;
25637;SDS011;13496;51.040;13.680;2022-12-18T03:38:30;4.70;;;4.30;;
25637;SDS011;13496;51.040;13.680;2022-12-18T03:43:41;4.80;;;4.40;;
25637;SDS011;13496;51.040;13.680;2022-12-18T03:48:56;4.77;;;4.37;;
25637;SDS011;13496;51.040;13.680;2022-12-18T03:54:05;4.83;;;4.40;;
25637;SDS011;13496;51.040;13.680;2022-12-18T03:59:15;4.80;;;4.40;;
25637;SDS011;13496;51.040;13.680;2022-12-18T04:04:18;4.93;;;4.40;;
25637;SDS011;13496;51.040;13.680;2022-12-18T04:09:21;4.73;;;4.33;;
25637;SDS011;13496;51.040;13.680;2022-12-18T04:14:25;4.60;;;4.20;;
25637;SDS011;13496;51.040;13.680;2022-12-18T04:19:30;4.60;;;4.20;;
25637;SDS011;13496;51.040;13.680;2022-12-18T04:24:33;5.27;;;4.17;;
25637;SDS011;13496;51.040;13.680;2022-12-18T04:29:42;4.30;;;3.90;;
25637;SDS011;13496;51.040;13.680;2022-12-18T04:34:44;3.67;;;3.37;;
25637;SDS011;13496;51.040;13.680;2022-12-18T04:39:46;4.50;;;4.10;;
25637;SDS011;13496;51.040;13.680;2022-12-18T04:44:56;4.30;;;3.90;;
25637;SDS011;13496;51.040;13.680;2022-12-18T04:49:57;4.20;;;3.80;;
25637;SDS011;13496;51.040;13.680;2022-12-18T04:54:59;4.47;;;3.70;;
25637;SDS011;13496;51.040;13.680;2022-12-18T05:00:01;4.10;;;3.47;;
25637;SDS011;13496;51.040;13.680;2022-12-18T05:05:02;3.70;;;3.40;;
25637;SDS011;13496;51.040;13.680;2022-12-18T05:10:06;4.07;;;3.70;;
25637;SDS011;13496;51.040;13.680;2022-12-18T05:15:08;3.97;;;3.67;;
25637;SDS011;13496;51.040;13.680;2022-12-18T05:20:10;3.67;;;3.37;;
25637;SDS011;13496;51.040;13.680;2022-12-18T05:25:11;3.80;;;3.47;;
25637;SDS011;13496;51.040;13.680;2022-12-18T05:30:14;4.20;;;3.90;;
25637;SDS011;13496;51.040;13.680;2022-12-18T05:35:16;3.87;;;3.57;;
25637;SDS011;13496;51.040;13.680;2022-12-18T05:40:18;3.63;;;3.33;;
25637;SDS011;13496;51.040;13.680;2022-12-18T05:45:19;3.37;;;3.07;;
25637;SDS011;13496;51.040;13.680;2022-12-18T05:50:21;3.30;;;3.00;;
25637;SDS011;13496;51.040;13.680;2022-12-18T05:55:23;3.20;;;2.90;;
25637;SDS011;13496;51.040;13.680;2022-12-18T06:00:25;3.27;;;2.97;;
25637;SDS011;13496;51.040;13.680;2022-12-18T06:05:27;3.30;;;3.00;;
25637;SDS011;13496;51.040;13.680;2022-12-18T06:10:29;3.47;;;3.17;;
25637;SDS011;13496;51.040;13.680;2022-12-18T06:15:31;3.73;;;3.40;;
25637;SDS011;13496;51.040;13.680;2022-12-18T06:20:33;3.27;;;2.97;;
25637;SDS011;13496;51.040;13.680;2022-12-18T06:25:37;3.27;;;2.90;;
25637;SDS011;13496;51.040;13.680;2022-12-18T06:30:39;3.30;;;2.93;;
25637;SDS011;13496;51.040;13.680;2022-12-18T06:35:41;3.73;;;2.80;;
25637;SDS011;13496;51.040;13.680;2022-12-18T06:40:42;3.73;;;3.20;;
25637;SDS011;13496;51.040;13.680;2022-12-18T06:45:44;3.33;;;3.03;;
25637;SDS011;13496;51.040;13.680;2022-12-18T06:50:47;2.90;;;2.43;;
25637;SDS011;13496;51.040;13.680;2022-12-18T06:55:49;2.93;;;2.63;;
25637;SDS011;13496;51.040;13.680;2022-12-18T07:00:51;3.10;;;2.80;;
25637;SDS011;13496;51.040;13.680;2022-12-18T07:05:53;3.60;;;3.17;;
25637;SDS011;13496;51.040;13.680;2022-12-18T07:10:54;2.90;;;2.70;;
25637;SDS011;13496;51.040;13.680;2022-12-18T07:16:02;3.50;;;3.07;;
25637;SDS011;13496;51.040;13.680;2022-12-18T07:21:09;3.77;;;2.77;;
25637;SDS011;13496;51.040;13.680;2022-12-18T07:26:19;4.43;;;2.80;;
25637;SDS011;13496;51.040;13.680;2022-12-18T07:31:21;3.13;;;2.83;;
25637;SDS011;13496;51.040;13.680;2022-12-18T07:36:23;3.23;;;2.90;;
25637;SDS011;13496;51.040;13.680;2022-12-18T07:41:25;3.77;;;2.60;;
25637;SDS011;13496;51.040;13.680;2022-12-18T07:46:26;3.30;;;2.97;;
25637;SDS011;13496;51.040;13.680;2022-12-18T07:51:28;2.87;;;2.67;;
25637;SDS011;13496;51.040;13.680;2022-12-18T07:56:29;3.20;;;2.67;;
25637;SDS011;13496;51.040;13.680;2022-12-18T08:01:32;3.40;;;2.93;;
25637;SDS011;13496;51.040;13.680;2022-12-18T08:06:34;3.17;;;2.87;;
25637;SDS011;13496;51.040;13.680;2022-12-18T08:11:36;3.67;;;2.67;;
25637;SDS011;13496;51.040;13.680;2022-12-18T08:16:37;3.27;;;2.57;;
25637;SDS011;13496;51.040;13.680;2022-12-18T08:21:39;3.37;;;3.07;;
25637;SDS011;13496;51.040;13.680;2022-12-18T08:26:41;3.33;;;2.90;;
25637;SDS011;13496;51.040;13.680;2022-12-18T08:31:43;3.73;;;2.80;;
25637;SDS011;13496;51.040;13.680;2022-12-18T08:36:44;5.40;;;3.17;;
25637;SDS011;13496;51.040;13.680;2022-12-18T08:41:46;3.07;;;2.77;;
25637;SDS011;13496;51.040;13.680;2022-12-18T08:47:07;3.30;;;2.77;;
25637;SDS011;13496;51.040;13.680;2022-12-18T08:52:09;3.40;;;2.70;;
25637;SDS011;13496;51.040;13.680;2022-12-18T08:57:11;3.40;;;2.90;;
25637;SDS011;13496;51.040;13.680;2022-12-18T09:02:13;3.10;;;2.80;;
25637;SDS011;13496;51.040;13.680;2022-12-18T09:07:14;4.10;;;2.83;;
25637;SDS011;13496;51.040;13.680;2022-12-18T09:12:16;3.87;;;2.87;;
25637;SDS011;13496;51.040;13.680;2022-12-18T09:17:18;4.00;;;2.90;;
25637;SDS011;13496;51.040;13.680;2022-12-18T09:22:19;3.40;;;3.10;;
25637;SDS011;13496;51.040;13.680;2022-12-18T09:27:21;5.20;;;3.60;;
25637;SDS011;13496;51.040;13.680;2022-12-18T09:32:22;4.40;;;3.43;;
25637;SDS011;13496;51.040;13.680;2022-12-18T09:37:24;4.03;;;3.40;;
25637;SDS011;13496;51.040;13.680;2022-12-18T09:42:26;4.00;;;3.70;;
25637;SDS011;13496;51.040;13.680;2022-12-18T09:47:33;4.73;;;3.43;;
25637;SDS011;13496;51.040;13.680;2022-12-18T09:52:44;4.40;;;4.00;;
25637;SDS011;13496;51.040;13.680;2022-12-18T09:57:51;5.57;;;3.70;;
25637;SDS011;13496;51.040;13.680;2022-12-18T10:02:59;4.80;;;4.37;;
25637;SDS011;13496;51.040;13.680;2022-12-18T10:08:05;6.07;;;4.77;;
25637;SDS011;13496;51.040;13.680;2022-12-18T10:24:03;6.97;;;5.67;;
25637;SDS011;13496;51.040;13.680;2022-12-18T10:29:16;8.37;;;5.57;;
25637;SDS011;13496;51.040;13.680;2022-12-18T10:34:18;6.20;;;5.60;;
25637;SDS011;13496;51.040;13.680;2022-12-18T10:39:21;12.73;;;6.67;;
25637;SDS011;13496;51.040;13.680;2022-12-18T10:44:24;6.73;;;6.03;;
25637;SDS011;13496;51.040;13.680;2022-12-18T10:49:28;8.00;;;5.70;;
25637;SDS011;13496;51.040;13.680;2022-12-18T10:54:32;7.60;;;6.47;;
25637;SDS011;13496;51.040;13.680;2022-12-18T10:59:49;8.50;;;5.97;;
25637;SDS011;13496;51.040;13.680;2022-12-18T11:04:55;7.73;;;6.10;;
25637;SDS011;13496;51.040;13.680;2022-12-18T11:10:00;7.70;;;6.47;;
25637;SDS011;13496;51.040;13.680;2022-12-18T11:15:02;7.60;;;6.07;;
25637;SDS011;13496;51.040;13.680;2022-12-18T11:20:05;7.47;;;6.33;;
25637;SDS011;13496;51.040;13.680;2022-12-18T11:25:20;6.87;;;6.13;;
25637;SDS011;13496;51.040;13.680;2022-12-18T11:30:23;6.97;;;5.90;;
25637;SDS011;13496;51.040;13.680;2022-12-18T11:35:33;7.90;;;6.50;;
25637;SDS011;13496;51.040;13.680;2022-12-18T11:40:47;7.80;;;6.13;;
25637;SDS011;13496;51.040;13.680;2022-12-18T11:46:03;9.37;;;6.40;;
25637;SDS011;13496;51.040;13.680;2022-12-18T11:51:10;7.10;;;6.40;;
25637;SDS011;13496;51.040;13.680;2022-12-18T11:56:29;6.90;;;6.20;;
25637;SDS011;13496;51.040;13.680;2022-12-18T12:01:50;9.23;;;7.37;;
25637;SDS011;13496;51.040;13.680;2022-12-18T12:07:11;7.87;;;6.40;;
25637;SDS011;13496;51.040;13.680;2022-12-18T12:17:55;7.43;;;6.50;;
25637;SDS011;13496;51.040;13.680;2022-12-18T12:34:11;8.87;;;7.23;;
25637;SDS011;13496;51.040;13.680;2022-12-18T12:39:24;7.73;;;6.63;;
25637;SDS011;13496;51.040;13.680;2022-12-18T12:44:50;9.87;;;7.40;;
25637;SDS011;13496;51.040;13.680;2022-12-18T12:49:57;8.30;;;7.27;;
25637;SDS011;13496;51.040;13.680;2022-12-18T12:55:02;8.10;;;7.30;;
25637;SDS011;13496;51.040;13.680;2022-12-18T13:00:25;10.07;;;7.90;;
25637;SDS011;13496;51.040;13.680;2022-12-18T13:05:34;7.77;;;6.93;;
25637;SDS011;13496;51.040;13.680;2022-12-18T13:10:46;9.43;;;7.77;;
25637;SDS011;13496;51.040;13.680;2022-12-18T13:16:06;8.33;;;6.73;;
25637;SDS011;13496;51.040;13.680;2022-12-18T13:21:28;8.20;;;7.20;;
25637;SDS011;13496;51.040;13.680;2022-12-18T13:26:32;8.50;;;7.13;;
25637;SDS011;13496;51.040;13.680;2022-12-18T13:36:42;8.17;;;7.33;;
25637;SDS011;13496;51.040;13.680;2022-12-18T13:41:45;9.03;;;7.63;;
25637;SDS011;13496;51.040;13.680;2022-12-18T13:46:48;8.13;;;7.20;;
25637;SDS011;13496;51.040;13.680;2022-12-18T13:51:53;9.47;;;7.40;;
25637;SDS011;13496;51.040;13.680;2022-12-18T13:56:56;11.07;;;7.20;;
25637;SDS011;13496;51.040;13.680;2022-12-18T14:01:59;8.10;;;7.30;;
25637;SDS011;13496;51.040;13.680;2022-12-18T14:12:19;8.63;;;7.27;;
25637;SDS011;13496;51.040;13.680;2022-12-18T14:17:43;9.10;;;7.63;;
25637;SDS011;13496;51.040;13.680;2022-12-18T14:22:46;11.23;;;7.27;;
25637;SDS011;13496;51.040;13.680;2022-12-18T14:27:50;9.47;;;8.47;;
25637;SDS011;13496;51.040;13.680;2022-12-18T14:43:21;8.37;;;7.43;;
25637;SDS011;13496;51.040;13.680;2022-12-18T14:53:43;9.90;;;7.87;;
25637;SDS011;13496;51.040;13.680;2022-12-18T14:59:06;9.67;;;8.10;;
25637;SDS011;13496;51.040;13.680;2022-12-18T15:04:37;8.63;;;7.73;;
25637;SDS011;13496;51.040;13.680;2022-12-18T15:09:46;8.80;;;7.90;;
25637;SDS011;13496;51.040;13.680;2022-12-18T15:15:02;10.37;;;7.83;;
25637;SDS011;13496;51.040;13.680;2022-12-18T15:20:09;9.67;;;8.00;;
25637;SDS011;13496;51.040;13.680;2022-12-18T15:30:32;40.43;;;13.87;;
25637;SDS011;13496;51.040;13.680;2022-12-18T15:35:34;36.33;;;14.10;;
25637;SDS011;13496;51.040;13.680;2022-12-18T15:40:36;35.40;;;15.07;;
25637;SDS011;13496;51.040;13.680;2022-12-18T15:45:38;23.67;;;13.67;;
25637;SDS011;13496;51.040;13.680;2022-12-18T15:50:39;25.23;;;13.53;;
25637;SDS011;13496;51.040;13.680;2022-12-18T15:55:41;25.43;;;12.83;;
25637;SDS011;13496;51.040;13.680;2022-12-18T16:01:02;29.10;;;13.37;;
25637;SDS011;13496;51.040;13.680;2022-12-18T16:06:04;20.03;;;12.63;;
25637;SDS011;13496;51.040;13.680;2022-12-18T16:11:05;22.37;;;12.60;;
25637;SDS011;13496;51.040;13.680;2022-12-18T16:16:21;18.77;;;12.23;;
25637;SDS011;13496;51.040;13.680;2022-12-18T16:21:23;17.67;;;11.53;;
25637;SDS011;13496;51.040;13.680;2022-12-18T16:26:24;16.20;;;11.40;;
25637;SDS011;13496;51.040;13.680;2022-12-18T16:31:26;15.67;;;11.43;;
25637;SDS011;13496;51.040;13.680;2022-12-18T16:36:28;16.53;;;12.30;;
25637;SDS011;13496;51.040;13.680;2022-12-18T16:41:29;12.77;;;10.70;;
25637;SDS011;13496;51.040;13.680;2022-12-18T16:46:34;16.90;;;11.87;;
25637;SDS011;13496;51.040;13.680;2022-12-18T16:51:36;16.83;;;11.33;;
25637;SDS011;13496;51.040;13.680;2022-12-18T16:56:38;13.53;;;11.13;;
25637;SDS011;13496;51.040;13.680;2022-12-18T17:01:40;12.10;;;10.73;;
25637;SDS011;13496;51.040;13.680;2022-12-18T17:06:42;14.90;;;11.33;;
25637;SDS011;13496;51.040;13.680;2022-12-18T17:11:45;15.07;;;10.93;;
25637;SDS011;13496;51.040;13.680;2022-12-18T17:16:47;14.47;;;11.23;;
25637;SDS011;13496;51.040;13.680;2022-12-18T17:21:49;15.00;;;10.90;;
25637;SDS011;13496;51.040;13.680;2022-12-18T17:26:52;14.30;;;10.83;;
25637;SDS011;13496;51.040;13.680;2022-12-18T17:31:53;15.23;;;10.20;;
25637;SDS011;13496;51.040;13.680;2022-12-18T17:36:55;12.93;;;10.53;;
25637;SDS011;13496;51.040;13.680;2022-12-18T17:41:57;12.47;;;10.30;;
25637;SDS011;13496;51.040;13.680;2022-12-18T17:46:59;13.07;;;10.27;;
25637;SDS011;13496;51.040;13.680;2022-12-18T17:52:01;12.43;;;9.80;;
25637;SDS011;13496;51.040;13.680;2022-12-18T17:57:03;10.97;;;9.77;;
25637;SDS011;13496;51.040;13.680;2022-12-18T18:02:05;14.10;;;10.70;;
25637;SDS011;13496;51.040;13.680;2022-12-18T18:07:09;13.50;;;10.00;;
25637;SDS011;13496;51.040;13.680;2022-12-18T18:12:11;14.33;;;9.40;;
25637;SDS011;13496;51.040;13.680;2022-12-18T18:17:31;12.60;;;9.50;;
25637;SDS011;13496;51.040;13.680;2022-12-18T18:22:34;13.27;;;9.73;;
25637;SDS011;13496;51.040;13.680;2022-12-18T18:27:36;15.50;;;10.00;;
25637;SDS011;13496;51.040;13.680;2022-12-18T18:32:38;45.63;;;14.80;;
25637;SDS011;13496;51.040;13.680;2022-12-18T18:37:40;70.77;;;16.00;;
25637;SDS011;13496;51.040;13.680;2022-12-18T18:42:41;85.53;;;18.63;;
25637;SDS011;13496;51.040;13.680;2022-12-18T18:47:43;74.40;;;16.97;;
25637;SDS011;13496;51.040;13.680;2022-12-18T18:52:45;57.43;;;15.53;;
25637;SDS011;13496;51.040;13.680;2022-12-18T18:57:47;66.23;;;17.80;;
25637;SDS011;13496;51.040;13.680;2022-12-18T19:02:49;56.43;;;15.03;;
25637;SDS011;13496;51.040;13.680;2022-12-18T19:07:50;55.80;;;15.13;;
25637;SDS011;13496;51.040;13.680;2022-12-18T19:12:52;47.07;;;14.90;;
25637;SDS011;13496;51.040;13.680;2022-12-18T19:18:12;38.50;;;13.87;;
25637;SDS011;13496;51.040;13.680;2022-12-18T19:23:14;32.80;;;14.13;;
25637;SDS011;13496;51.040;13.680;2022-12-18T19:28:16;38.33;;;12.87;;
25637;SDS011;13496;51.040;13.680;2022-12-18T19:33:18;58.97;;;15.83;;
25637;SDS011;13496;51.040;13.680;2022-12-18T19:38:20;36.27;;;13.23;;
25637;SDS011;13496;51.040;13.680;2022-12-18T19:43:22;41.97;;;14.33;;
25637;SDS011;13496;51.040;13.680;2022-12-18T19:48:24;42.43;;;13.43;;
25637;SDS011;13496;51.040;13.680;2022-12-18T19:53:26;29.93;;;14.07;;
25637;SDS011;13496;51.040;13.680;2022-12-18T19:58:27;25.07;;;11.77;;
25637;SDS011;13496;51.040;13.680;2022-12-18T20:03:29;34.20;;;12.20;;
25637;SDS011;13496;51.040;13.680;2022-12-18T20:08:31;20.20;;;11.53;;
25637;SDS011;13496;51.040;13.680;2022-12-18T20:13:33;27.90;;;12.03;;
25637;SDS011;13496;51.040;13.680;2022-12-18T20:18:35;20.57;;;11.30;;
25637;SDS011;13496;51.040;13.680;2022-12-18T20:23:36;27.30;;;11.23;;
25637;SDS011;13496;51.040;13.680;2022-12-18T20:28:38;24.20;;;10.67;;
25637;SDS011;13496;51.040;13.680;2022-12-18T20:33:40;26.40;;;10.83;;
25637;SDS011;13496;51.040;13.680;2022-12-18T20:38:42;20.10;;;10.33;;
25637;SDS011;13496;51.040;13.680;2022-12-18T20:43:44;25.20;;;10.43;;
25637;SDS011;13496;51.040;13.680;2022-12-18T20:48:46;22.10;;;10.00;;
25637;SDS011;13496;51.040;13.680;2022-12-18T20:53:48;21.07;;;10.23;;
25637;SDS011;13496;51.040;13.680;2022-12-18T20:58:50;18.50;;;9.27;;
25637;SDS011;13496;51.040;13.680;2022-12-18T21:03:51;17.07;;;9.47;;
25637;SDS011;13496;51.040;13.680;2022-12-18T21:08:55;18.40;;;9.93;;
25637;SDS011;13496;51.040;13.680;2022-12-18T21:13:56;20.50;;;9.97;;
25637;SDS011;13496;51.040;13.680;2022-12-18T21:18:58;13.87;;;9.40;;
25637;SDS011;13496;51.040;13.680;2022-12-18T21:24:00;16.13;;;9.77;;
25637;SDS011;13496;51.040;13.680;2022-12-18T21:29:03;15.77;;;9.67;;
25637;SDS011;13496;51.040;13.680;2022-12-18T21:34:07;16.03;;;9.67;;
25637;SDS011;13496;51.040;13.680;2022-12-18T21:39:14;18.93;;;9.37;;
25637;SDS011;13496;51.040;13.680;2022-12-18T21:44:16;12.83;;;9.03;;
25637;SDS011;13496;51.040;13.680;2022-12-18T21:49:19;14.03;;;8.87;;
25637;SDS011;13496;51.040;13.680;2022-12-18T21:54:24;10.63;;;8.17;;
25637;SDS011;13496;51.040;13.680;2022-12-18T22:04:34;11.07;;;8.90;;
25637;SDS011;13496;51.040;13.680;2022-12-18T22:09:35;12.67;;;8.50;;
25637;SDS011;13496;51.040;13.680;2022-12-18T22:14:37;14.10;;;8.73;;
25637;SDS011;13496;51.040;13.680;2022-12-18T22:19:39;10.90;;;8.37;;
25637;SDS011;13496;51.040;13.680;2022-12-18T22:24:40;11.13;;;8.40;;
25637;SDS011;13496;51.040;13.680;2022-12-18T22:29:42;11.83;;;8.13;;
25637;SDS011;13496;51.040;13.680;2022-12-18T22:35:03;11.07;;;8.23;;
25637;SDS011;13496;51.040;13.680;2022-12-18T22:40:06;9.70;;;7.70;;
25637;SDS011;13496;51.040;13.680;2022-12-18T22:45:08;10.87;;;7.60;;
25637;SDS011;13496;51.040;13.680;2022-12-18T22:50:13;9.30;;;7.70;;
25637;SDS011;13496;51.040;13.680;2022-12-18T22:55:15;10.23;;;7.63;;
25637;SDS011;13496;51.040;13.680;2022-12-18T23:00:16;9.73;;;8.07;;
25637;SDS011;13496;51.040;13.680;2022-12-18T23:05:18;9.50;;;7.30;;
25637;SDS011;13496;51.040;13.680;2022-12-18T23:10:20;8.80;;;7.10;;
25637;SDS011;13496;51.040;13.680;2022-12-18T23:15:22;8.90;;;7.63;;
25637;SDS011;13496;51.040;13.680;2022-12-18T23:20:24;9.13;;;7.90;;
25637;SDS011;13496;51.040;13.680;2022-12-18T23:25:27;9.33;;;8.13;;
25637;SDS011;13496;51.040;13.680;2022-12-18T23:30:29;10.53;;;8.40;;
25637;SDS011;13496;51.040;13.680;2022-12-18T23:35:31;9.30;;;7.53;;
25637;SDS011;13496;51.040;13.680;2022-12-18T23:40:33;8.97;;;7.77;;
25637;SDS011;13496;51.040;13.680;2022-12-18T23:45:38;8.50;;;7.63;;
25637;SDS011;13496;51.040;13.680;2022-12-18T23:50:39;8.97;;;7.60;;
25637;SDS011;13496;51.040;13.680;2022-12-18T23:55:41;8.90;;;7.80;;
